MUGM/NBW METAR and TAF weather

Enter ICAO airport designator
Station Type Date Time Source
MUGM METAR 2020/12/05 05:51 UTC NOAA

MUGM 050551Z 32006KT 10SM FEW030 FEW280 23/22 A3002 RMK AO2 SLP163 T02330217 10261 20233 58006 $


Station Type Date Time Source
MUGM Decoded METAR 2020/12/05 05:51 UTC NOAA

GUANTANAMO BAY, CUBA NAVAL, CU, Cuba (MUGM) 19-55N 075-12W 23M
Dec 05, 2020 - 12:51 AM EST / 2020.12.05 0551 UTC
Wind: from the NW (320 degrees) at 7 MPH (6 KT):0
Visibility: 10 mile(s):0
Sky conditions: mostly clear
Temperature: 73.9 F (23.3 C)
Dew Point: 71.1 F (21.7 C)
Relative Humidity: 90%
Pressure (altimeter): 30.02 in. Hg (1016 hPa)
Pressure tendency: 0.02 inches (0.6 hPa) lower than three hours ago
ob: MUGM 050551Z 32006KT 10SM FEW030 FEW280 23/22 A3002 RMK AO2 SLP163 T02330217 10261 20233 58006
cycle: 6

Station Type Date Time Source
MUGM TAF 2020/12/04 23:59 UTC NOAA

TAF MUGM 0423/0523 07006KT 9999 FEW030 FEW090 BKN280 QNH2996INS
BECMG 0501/0503 35008KT 9999 FEW030 FEW090 BKN280 QNH3000INS
BECMG 0504/0506 12012KT 9999 FEW030 FEW090 SCT280 QNH2997INS
FM051500 04006KT 9999 FEW030 FEW090 BKN280 QNH2999INS
FM051700 13012KT 9999 SCT030 SCT100 BKN280 QNH2994INS T23/0511Z T31/0517Z FN20024

Example: see airport list